Time;durP1;ratioP1;P1;durP2;ratioP2;P2;SDS_P1;SDS_P2;PMS_P1;PMS_P2;Temp;Humidity;BMP_temperature;BMP_pressure;BME280_temperature;BME280_humidity;BME280_pressure;Samples;Min_cycle;Max_cycle;Signal;HPM_P1;HPM_P2
2022/10/30 00:00:41;;;;;;;34.15;17.38;;;;;;;;;;5089277;28;20112;-77
2022/10/30 00:03:10;;;;;;;33.05;17.30;;;;;;;;;;5089208;28;20515;-79
2022/10/30 00:05:36;;;;;;;34.20;16.58;;;;;;;;;;5089752;28;20040;-80
2022/10/30 00:08:02;;;;;;;34.88;17.38;;;;;;;;;;5089407;28;20040;-76
2022/10/30 00:10:28;;;;;;;33.35;18.30;;;;;;;;;;5088164;28;20431;-77
2022/10/30 00:12:54;;;;;;;34.67;17.63;;;;;;;;;;5089468;28;20435;-75
2022/10/30 00:15:20;;;;;;;30.33;17.20;;;;;;;;;;5089167;28;20063;-81
2022/10/30 00:17:46;;;;;;;34.30;17.63;;;;;;;;;;5089862;28;20399;-78
2022/10/30 00:20:12;;;;;;;30.55;16.05;;;;;;;;;;5090451;28;20479;-73
2022/10/30 00:22:38;;;;;;;37.55;18.60;;;;;;;;;;5091244;28;20051;-79
2022/10/30 00:25:04;;;;;;;37.20;16.83;;;;;;;;;;5090518;28;20044;-80
2022/10/30 00:27:30;;;;;;;;;;;;;;;;;;5091641;28;20043;-78
2022/10/30 00:29:56;;;;;;;33.75;17.13;;;;;;;;;;5090789;28;19916;-78
2022/10/30 00:32:22;;;;;;;34.50;16.98;;;;;;;;;;5089845;28;20036;-78
2022/10/30 00:34:48;;;;;;;32.85;17.08;;;;;;;;;;5090628;28;20088;-76
2022/10/30 00:37:14;;;;;;;31.20;16.55;;;;;;;;;;5090259;28;20122;-74
2022/10/30 00:39:40;;;;;;;35.22;17.40;;;;;;;;;;5090354;28;20052;-76
2022/10/30 00:42:09;;;;;;;31.13;16.13;;;;;;;;;;5090294;28;20108;-77
2022/10/30 00:44:37;;;;;;;29.17;16.65;;;;;;;;;;5089649;28;20464;-77
2022/10/30 00:47:06;;;;;;;35.33;16.88;;;;;;;;;;5089231;28;20074;-78
2022/10/30 00:49:35;;;;;;;36.80;16.73;;;;;;;;;;5089446;28;20051;-78
2022/10/30 00:52:03;;;;;;;35.63;17.13;;;;;;;;;;5089472;28;20130;-77
2022/10/30 00:54:29;;;;;;;31.55;16.40;;;;;;;;;;5087794;28;20115;-79
2022/10/30 00:56:55;;;;;;;34.80;16.52;;;;;;;;;;5088792;28;20049;-79
2022/10/30 00:59:28;;;;;;;33.67;16.63;;;;;;;;;;5089099;28;20040;-78
2022/10/30 01:01:54;;;;;;;37.50;16.98;;;;;;;;;;5090787;28;20075;-76
2022/10/30 01:04:20;;;;;;;33.55;16.30;;;;;;;;;;5092726;28;20047;-78
2022/10/30 01:06:47;;;;;;;;;;;;;;;;;;5093125;28;20063;-78
2022/10/30 01:09:13;;;;;;;37.90;16.42;;;;;;;;;;5091025;28;19928;-81
2022/10/30 01:11:39;;;;;;;30.33;15.90;;;;;;;;;;5092494;28;20146;-80
2022/10/30 01:14:07;;;;;;;28.20;16.10;;;;;;;;;;5092491;28;20040;-78
2022/10/30 01:16:45;;;;;;;27.95;16.33;;;;;;;;;;5092458;28;20368;-80
2022/10/30 01:19:22;;;;;;;30.92;16.02;;;;;;;;;;5092216;28;20094;-78
2022/10/30 01:21:54;;;;;;;29.20;15.32;;;;;;;;;;5092398;28;20044;-80
2022/10/30 01:24:23;;;;;;;37.88;15.70;;;;;;;;;;5092545;28;20344;-74
2022/10/30 01:27:03;;;;;;;31.30;15.50;;;;;;;;;;5092310;28;20036;-79
2022/10/30 01:29:34;;;;;;;33.40;16.48;;;;;;;;;;5092492;28;20050;-83
2022/10/30 01:32:03;;;;;;;33.90;16.98;;;;;;;;;;5092507;28;20049;-78
2022/10/30 01:34:44;;;;;;;34.90;16.85;;;;;;;;;;5092428;28;20360;-78
2022/10/30 01:37:15;;;;;;;31.48;16.63;;;;;;;;;;5092198;28;20036;-80
2022/10/30 01:39:41;;;;;;;29.92;16.27;;;;;;;;;;5091345;28;20401;-76
2022/10/30 01:42:27;;;;;;;28.98;15.40;;;;;;;;;;5092002;28;20044;-81
2022/10/30 01:44:53;;;;;;;31.83;16.30;;;;;;;;;;5091453;28;20123;-82
2022/10/30 01:47:32;;;;;;;30.20;16.42;;;;;;;;;;5092185;28;20043;-81
2022/10/30 01:50:07;;;;;;;31.27;16.65;;;;;;;;;;5092117;28;20050;-74
2022/10/30 01:52:40;;;;;;;32.47;16.75;;;;;;;;;;5091830;28;20047;-81
2022/10/30 01:55:15;;;;;;;31.67;17.02;;;;;;;;;;5091581;28;20471;-78
2022/10/30 01:58:00;;;;;;;32.88;16.27;;;;;;;;;;5091741;28;20047;-76
2022/10/30 02:00:27;;;;;;;32.30;17.48;;;;;;;;;;5090592;28;20153;-80
2022/10/30 02:02:53;;;;;;;36.03;17.48;;;;;;;;;;5092551;28;20050;-77
2022/10/30 02:05:31;;;;;;;34.25;15.70;;;;;;;;;;5091996;28;20036;-78
2022/10/30 02:07:57;;;;;;;30.98;16.50;;;;;;;;;;5092156;28;20143;-78
2022/10/30 02:10:23;;;;;;;32.47;16.30;;;;;;;;;;5090458;28;20044;-79
2022/10/30 02:12:50;;;;;;;30.73;15.98;;;;;;;;;;5090895;28;20098;-80
2022/10/30 02:15:16;;;;;;;28.15;16.58;;;;;;;;;;5091625;28;20139;-77
2022/10/30 02:17:42;;;;;;;31.63;17.23;;;;;;;;;;5091662;28;20134;-77
2022/10/30 02:20:14;;;;;;;31.13;16.17;;;;;;;;;;5091903;28;20067;-76
2022/10/30 02:22:40;;;;;;;33.38;16.52;;;;;;;;;;5092191;28;20044;-76
2022/10/30 02:25:06;;;;;;;34.22;16.85;;;;;;;;;;5091492;28;20416;-78
2022/10/30 02:27:32;;;;;;;30.88;16.38;;;;;;;;;;5091625;28;20101;-76
2022/10/30 02:29:59;;;;;;;27.35;15.77;;;;;;;;;;5091059;28;20125;-79
2022/10/30 02:32:25;;;;;;;30.63;16.52;;;;;;;;;;5091424;28;20070;-79
2022/10/30 02:34:51;;;;;;;29.77;15.32;;;;;;;;;;5091649;28;20202;-80
2022/10/30 02:37:17;;;;;;;34.25;16.85;;;;;;;;;;5091440;28;20312;-77
2022/10/30 02:39:43;;;;;;;29.73;16.67;;;;;;;;;;5091706;28;20514;-78
2022/10/30 02:42:09;;;;;;;30.38;15.80;;;;;;;;;;5091097;28;20370;-78
2022/10/30 02:44:35;;;;;;;34.67;16.60;;;;;;;;;;5090792;28;20040;-81
2022/10/30 02:47:01;;;;;;;34.40;16.92;;;;;;;;;;5090817;28;20093;-83
2022/10/30 02:49:27;;;;;;;26.65;16.27;;;;;;;;;;5090575;28;20364;-79
2022/10/30 02:51:53;;;;;;;34.88;17.23;;;;;;;;;;5090692;28;20043;-81
2022/10/30 02:54:19;;;;;;;34.83;16.50;;;;;;;;;;5091315;28;20158;-81
2022/10/30 02:56:45;;;;;;;32.40;16.90;;;;;;;;;;5091128;28;20372;-82
2022/10/30 02:59:11;;;;;;;30.25;16.60;;;;;;;;;;5091299;28;20412;-80
2022/10/30 03:01:37;;;;;;;28.20;16.42;;;;;;;;;;5091188;28;20126;-77
2022/10/30 03:04:03;;;;;;;34.15;16.85;;;;;;;;;;5090994;28;20036;-78
2022/10/30 03:06:29;;;;;;;33.33;16.48;;;;;;;;;;5090786;28;20131;-82
2022/10/30 03:08:55;;;;;;;29.60;15.95;;;;;;;;;;5090863;28;20119;-81
2022/10/30 03:11:21;;;;;;;32.63;16.00;;;;;;;;;;5090946;28;20040;-79
2022/10/30 03:13:48;;;;;;;32.08;17.30;;;;;;;;;;5090866;28;20332;-79
2022/10/30 03:16:14;;;;;;;;;;;;;;;;;;5090895;28;20042;-80
2022/10/30 03:18:40;;;;;;;32.80;16.80;;;;;;;;;;5090918;28;19966;-75
2022/10/30 03:21:07;;;;;;;37.55;17.92;;;;;;;;;;5091379;28;20051;-78
2022/10/30 03:23:34;;;;;;;30.40;17.08;;;;;;;;;;5090967;28;20139;-79
2022/10/30 03:26:00;;;;;;;33.08;17.30;;;;;;;;;;5091132;28;20036;-79
2022/10/30 03:28:28;;;;;;;31.90;16.33;;;;;;;;;;5091096;28;20040;-80
2022/10/30 03:31:10;;;;;;;31.40;16.13;;;;;;;;;;5091502;28;20039;-75
2022/10/30 03:33:37;;;;;;;32.78;17.27;;;;;;;;;;5091922;28;20087;-78
2022/10/30 03:36:04;;;;;;;32.88;16.90;;;;;;;;;;5090578;28;20047;-77
2022/10/30 03:38:30;;;;;;;33.63;17.75;;;;;;;;;;5091317;28;20051;-79
2022/10/30 03:40:56;;;;;;;30.80;17.30;;;;;;;;;;5090834;28;20129;-79
2022/10/30 03:43:22;;;;;;;;;;;;;;;;;;5091360;28;20043;-80
2022/10/30 03:45:52;;;;;;;33.65;16.63;;;;;;;;;;5089716;28;19916;-76
2022/10/30 03:48:19;;;;;;;36.33;18.48;;;;;;;;;;5091500;28;20330;-75
2022/10/30 03:50:46;;;;;;;38.53;17.48;;;;;;;;;;5090911;28;20070;-77
2022/10/30 03:53:12;;;;;;;;;;;;;;;;;;5090905;28;20383;-79
2022/10/30 03:55:38;;;;;;;36.53;17.73;;;;;;;;;;5090519;28;19916;-79
2022/10/30 03:58:04;;;;;;;30.60;17.02;;;;;;;;;;5090619;28;20048;-77
2022/10/30 04:00:30;;;;;;;32.85;16.58;;;;;;;;;;5090456;28;20453;-80
2022/10/30 04:02:56;;;;;;;30.98;16.88;;;;;;;;;;5090613;28;20036;-74
2022/10/30 04:05:22;;;;;;;;;;;;;;;;;;5091184;28;20079;-76
2022/10/30 04:07:49;;;;;;;28.38;17.35;;;;;;;;;;5090536;28;19970;-78
2022/10/30 04:10:14;;;;;;;;;;;;;;;;;;5090798;28;20466;-78
2022/10/30 04:12:41;;;;;;;31.50;17.52;;;;;;;;;;5090130;28;19995;-77
2022/10/30 04:15:08;;;;;;;39.50;17.95;;;;;;;;;;5089887;28;20484;-78
2022/10/30 04:17:34;;;;;;;35.67;16.73;;;;;;;;;;5089990;28;20105;-79
2022/10/30 04:20:00;;;;;;;;;;;;;;;;;;5090232;28;20207;-76
2022/10/30 04:22:26;;;;;;;39.15;18.92;;;;;;;;;;5090595;28;20014;-76
2022/10/30 04:24:52;;;;;;;34.72;17.45;;;;;;;;;;5089609;28;20047;-81
2022/10/30 04:27:19;;;;;;;34.33;19.02;;;;;;;;;;5090309;28;20059;-82
2022/10/30 04:29:45;;;;;;;33.70;18.38;;;;;;;;;;5089612;28;20055;-76
2022/10/30 04:32:11;;;;;;;30.30;17.75;;;;;;;;;;5089549;28;20087;-78
2022/10/30 04:34:38;;;;;;;35.05;17.60;;;;;;;;;;5089434;28;20490;-80
2022/10/30 04:37:07;;;;;;;35.72;18.35;;;;;;;;;;5091640;28;20043;-77
2022/10/30 04:39:33;;;;;;;30.90;17.55;;;;;;;;;;5091775;28;20060;-82
2022/10/30 04:41:59;;;;;;;35.20;18.42;;;;;;;;;;5093505;28;20134;-76
2022/10/30 04:44:25;;;;;;;36.03;18.85;;;;;;;;;;5093866;28;20094;-81
2022/10/30 04:46:51;;;;;;;35.45;18.73;;;;;;;;;;5093630;28;20140;-79
2022/10/30 04:49:17;;;;;;;34.03;18.38;;;;;;;;;;5093256;28;20133;-80
2022/10/30 04:51:46;;;;;;;36.00;18.75;;;;;;;;;;5093818;28;20040;-78
2022/10/30 04:54:12;;;;;;;32.80;18.25;;;;;;;;;;5093108;28;20063;-77
2022/10/30 04:56:38;;;;;;;35.67;19.35;;;;;;;;;;5093271;28;20036;-78
2022/10/30 04:59:04;;;;;;;31.52;17.95;;;;;;;;;;5093184;28;20040;-81
2022/10/30 05:01:30;;;;;;;37.90;19.85;;;;;;;;;;5093101;28;20051;-81
2022/10/30 05:03:57;;;;;;;40.38;18.75;;;;;;;;;;5093549;28;20036;-81
2022/10/30 05:06:28;;;;;;;34.65;18.63;;;;;;;;;;5093049;28;20039;-81
2022/10/30 05:08:55;;;;;;;34.25;18.08;;;;;;;;;;5093370;28;20124;-81
2022/10/30 05:11:21;;;;;;;36.17;19.25;;;;;;;;;;5093193;28;20044;-80
2022/10/30 05:13:47;;;;;;;;;;;;;;;;;;5093730;28;20103;-81
2022/10/30 05:16:13;;;;;;;33.72;18.33;;;;;;;;;;5092971;28;19963;-79
2022/10/30 05:18:39;;;;;;;35.53;18.25;;;;;;;;;;5092608;28;20517;-81
2022/10/30 05:21:05;;;;;;;38.35;18.90;;;;;;;;;;5091476;28;20332;-79
2022/10/30 05:23:32;;;;;;;42.05;20.17;;;;;;;;;;5093094;28;20127;-80
2022/10/30 05:26:01;;;;;;;34.10;19.25;;;;;;;;;;5092461;28;20119;-81
2022/10/30 05:28:27;;;;;;;36.42;18.98;;;;;;;;;;5092777;28;20044;-82
2022/10/30 05:30:53;;;;;;;36.95;19.42;;;;;;;;;;5092690;28;20047;-83
2022/10/30 05:33:19;;;;;;;;;;;;;;;;;;5092944;28;20079;-83
2022/10/30 05:35:45;;;;;;;31.50;18.75;;;;;;;;;;5092954;28;19923;-82
2022/10/30 05:38:12;;;;;;;37.38;19.67;;;;;;;;;;5092545;28;20044;-81
2022/10/30 05:40:37;;;;;;;;;;;;;;;;;;5093128;28;20062;-80
2022/10/30 05:43:04;;;;;;;34.72;19.50;;;;;;;;;;5092578;28;20293;-77
2022/10/30 05:45:30;;;;;;;34.88;18.58;;;;;;;;;;5092440;28;20048;-81
2022/10/30 05:47:56;;;;;;;;;;;;;;;;;;5091588;28;20040;-82
2022/10/30 05:50:22;;;;;;;34.53;18.98;;;;;;;;;;5092668;28;19927;-81
2022/10/30 05:52:48;;;;;;;39.88;19.85;;;;;;;;;;5091971;28;20535;-83
2022/10/30 05:55:14;;;;;;;40.40;19.73;;;;;;;;;;5092046;28;20501;-79
2022/10/30 05:57:40;;;;;;;34.45;19.58;;;;;;;;;;5092114;28;20127;-84
2022/10/30 06:00:07;;;;;;;35.63;19.20;;;;;;;;;;5092336;28;20409;-79
2022/10/30 06:02:33;;;;;;;33.65;18.27;;;;;;;;;;5091868;28;20039;-76
2022/10/30 06:04:59;;;;;;;37.38;20.55;;;;;;;;;;5092123;28;20052;-83
2022/10/30 06:07:25;;;;;;;36.33;19.90;;;;;;;;;;5090443;28;20515;-81
2022/10/30 06:09:51;;;;;;;35.13;20.20;;;;;;;;;;5092704;28;20182;-83
2022/10/30 06:12:17;;;;;;;34.58;19.50;;;;;;;;;;5091440;28;20127;-80
2022/10/30 06:14:43;;;;;;;31.75;17.80;;;;;;;;;;5091813;28;20071;-79
2022/10/30 06:17:09;;;;;;;37.58;19.35;;;;;;;;;;5091701;28;20047;-75
2022/10/30 06:19:35;;;;;;;32.95;19.50;;;;;;;;;;5091101;28;20090;-82
2022/10/30 06:22:01;;;;;;;34.35;19.05;;;;;;;;;;5091659;28;20196;-80
2022/10/30 06:24:27;;;;;;;36.88;19.92;;;;;;;;;;5090003;28;20047;-81
2022/10/30 06:26:53;;;;;;;33.17;19.20;;;;;;;;;;5090205;28;20091;-83
2022/10/30 06:29:19;;;;;;;37.03;19.02;;;;;;;;;;5091320;28;20440;-83
2022/10/30 06:31:45;;;;;;;33.20;19.13;;;;;;;;;;5091384;28;20531;-81
2022/10/30 06:34:11;;;;;;;40.72;19.85;;;;;;;;;;5091579;28;20408;-76
2022/10/30 06:36:37;;;;;;;44.15;19.65;;;;;;;;;;5091250;28;20477;-81
2022/10/30 06:39:03;;;;;;;34.28;19.83;;;;;;;;;;5091682;28;20319;-82
2022/10/30 06:41:29;;;;;;;36.92;21.48;;;;;;;;;;5091825;28;20188;-78
2022/10/30 06:43:56;;;;;;;34.90;19.52;;;;;;;;;;5091521;28;20044;-84
2022/10/30 06:46:22;;;;;;;38.17;20.42;;;;;;;;;;5091641;28;20134;-78
2022/10/30 06:48:48;;;;;;;35.42;19.77;;;;;;;;;;5092045;28;20044;-81
2022/10/30 06:51:14;;;;;;;30.70;19.77;;;;;;;;;;5091335;28;20055;-82
2022/10/30 06:53:40;;;;;;;36.90;20.63;;;;;;;;;;5091742;28;20047;-83
2022/10/30 06:56:07;;;;;;;38.75;19.70;;;;;;;;;;5092275;28;20040;-81
2022/10/30 06:58:37;;;;;;;45.08;20.35;;;;;;;;;;5091578;28;20039;-84
2022/10/30 07:01:04;;;;;;;38.22;20.63;;;;;;;;;;5090816;28;20063;-80
2022/10/30 07:03:30;;;;;;;35.33;20.58;;;;;;;;;;5090712;28;20135;-83
2022/10/30 07:05:56;;;;;;;36.78;20.63;;;;;;;;;;5091267;28;20059;-78
2022/10/30 07:08:23;;;;;;;32.45;20.65;;;;;;;;;;5089103;28;20047;-81
2022/10/30 07:10:49;;;;;;;40.97;20.60;;;;;;;;;;5090890;28;20383;-82
2022/10/30 07:13:15;;;;;;;34.25;21.10;;;;;;;;;;5090933;28;20108;-84
2022/10/30 07:15:41;;;;;;;42.38;21.63;;;;;;;;;;5090903;28;20449;-80
2022/10/30 07:18:09;;;;;;;31.15;20.50;;;;;;;;;;5090987;28;20126;-76
2022/10/30 07:20:35;;;;;;;35.90;19.90;;;;;;;;;;5089486;28;20310;-79
2022/10/30 07:23:01;;;;;;;;;;;;;;;;;;5091105;28;20043;-76
2022/10/30 07:25:28;;;;;;;28.80;20.27;;;;;;;;;;5090459;28;20288;-80
2022/10/30 07:27:54;;;;;;;37.90;20.02;;;;;;;;;;5090927;28;20036;-79
2022/10/30 07:30:21;;;;;;;32.75;19.25;;;;;;;;;;5091237;28;20066;-80
2022/10/30 07:32:57;;;;;;;36.17;20.60;;;;;;;;;;5090096;28;20092;-77
2022/10/30 07:35:24;;;;;;;40.00;21.60;;;;;;;;;;5090789;28;20043;-75
2022/10/30 07:37:50;;;;;;;36.17;21.33;;;;;;;;;;5089912;28;20101;-78
2022/10/30 07:40:17;;;;;;;36.83;20.67;;;;;;;;;;5091743;28;20036;-81
2022/10/30 07:42:43;;;;;;;40.58;20.42;;;;;;;;;;5092883;28;20044;-82
2022/10/30 07:45:09;;;;;;;34.60;20.42;;;;;;;;;;5092908;28;20060;-85
2022/10/30 07:47:42;;;;;;;38.05;22.33;;;;;;;;;;5092756;28;20036;-84
2022/10/30 07:50:09;;;;;;;37.88;21.10;;;;;;;;;;5092343;28;20043;-85
2022/10/30 07:52:35;;;;;;;39.40;20.38;;;;;;;;;;5091714;28;20099;-86
2022/10/30 07:55:01;;;;;;;37.25;19.45;;;;;;;;;;5091889;28;20490;-85
2022/10/30 07:57:27;;;;;;;33.53;20.67;;;;;;;;;;5092390;28;20468;-84
2022/10/30 07:59:53;;;;;;;37.95;20.63;;;;;;;;;;5092744;28;20417;-87
2022/10/30 08:02:19;;;;;;;35.15;19.50;;;;;;;;;;5090700;28;20044;-86
2022/10/30 08:04:45;;;;;;;33.08;21.10;;;;;;;;;;5090274;28;20127;-82
2022/10/30 08:07:11;;;;;;;36.45;20.13;;;;;;;;;;5091840;28;20086;-78
2022/10/30 08:09:37;;;;;;;37.20;21.13;;;;;;;;;;5091324;28;20048;-78
2022/10/30 08:12:03;;;;;;;36.75;21.10;;;;;;;;;;5090914;28;20116;-79
2022/10/30 08:14:29;;;;;;;34.35;20.70;;;;;;;;;;5092431;28;20046;-81
2022/10/30 08:16:55;;;;;;;46.22;20.85;;;;;;;;;;5092376;28;20040;-81
2022/10/30 08:19:21;;;;;;;34.13;20.83;;;;;;;;;;5091961;28;20487;-78
2022/10/30 08:21:47;;;;;;;36.05;20.88;;;;;;;;;;5091595;28;20138;-83
2022/10/30 08:24:13;;;;;;;38.25;21.48;;;;;;;;;;5092181;28;20131;-82
2022/10/30 08:26:39;;;;;;;38.00;21.55;;;;;;;;;;5091919;28;20036;-82
2022/10/30 08:29:05;;;;;;;36.60;20.65;;;;;;;;;;5090738;28;20131;-78
2022/10/30 08:31:31;;;;;;;39.90;21.83;;;;;;;;;;5091764;28;20036;-81
2022/10/30 08:33:57;;;;;;;40.33;22.13;;;;;;;;;;5091734;28;20229;-78
2022/10/30 08:36:23;;;;;;;37.30;21.73;;;;;;;;;;5090797;28;20040;-80
2022/10/30 08:38:50;;;;;;;41.80;21.08;;;;;;;;;;5072322;28;20113;-81
2022/10/30 08:41:16;;;;;;;38.17;22.30;;;;;;;;;;5091500;28;20135;-82
2022/10/30 08:43:42;;;;;;;40.92;22.58;;;;;;;;;;5089957;28;20135;-75
2022/10/30 08:46:08;;;;;;;43.15;22.52;;;;;;;;;;5090458;28;20052;-78
2022/10/30 08:48:34;;;;;;;40.42;21.63;;;;;;;;;;5090529;28;20119;-75
2022/10/30 08:51:00;;;;;;;38.72;21.65;;;;;;;;;;5090956;28;20075;-80
2022/10/30 08:53:26;;;;;;;39.65;22.35;;;;;;;;;;5091150;28;20143;-82
2022/10/30 08:55:52;;;;;;;39.35;21.67;;;;;;;;;;5090507;28;20051;-79
2022/10/30 08:58:19;;;;;;;40.90;22.65;;;;;;;;;;5090710;28;20036;-81
2022/10/30 09:00:45;;;;;;;40.10;21.65;;;;;;;;;;5090418;28;20503;-78
2022/10/30 09:03:11;;;;;;;36.97;20.95;;;;;;;;;;5091007;28;20047;-77
2022/10/30 09:05:37;;;;;;;40.17;21.17;;;;;;;;;;5071570;28;20051;-78
2022/10/30 09:08:03;;;;;;;38.83;22.77;;;;;;;;;;5090382;28;20122;-82
2022/10/30 09:10:29;;;;;;;36.28;21.13;;;;;;;;;;5090708;28;20088;-79
2022/10/30 09:12:55;;;;;;;;;;;;;;;;;;5089436;28;20047;-78
2022/10/30 09:15:21;;;;;;;43.15;23.02;;;;;;;;;;5088443;28;19923;-77
2022/10/30 09:17:47;;;;;;;35.53;21.88;;;;;;;;;;5088160;28;20101;-73
2022/10/30 09:20:13;;;;;;;33.95;21.73;;;;;;;;;;5087893;28;20440;-77
2022/10/30 09:22:40;;;;;;;39.60;21.40;;;;;;;;;;5089706;28;20193;-72
2022/10/30 09:25:07;;;;;;;32.65;19.98;;;;;;;;;;5092319;28;20048;-76
2022/10/30 09:27:36;;;;;;;42.92;20.73;;;;;;;;;;5092243;28;20464;-79
2022/10/30 09:30:03;;;;;;;37.05;21.30;;;;;;;;;;5092152;28;20044;-77
2022/10/30 09:32:29;;;;;;;36.20;20.85;;;;;;;;;;5092275;28;20425;-75
2022/10/30 09:34:55;;;;;;;36.10;20.13;;;;;;;;;;5091748;28;20066;-74
2022/10/30 09:37:22;;;;;;;35.70;19.70;;;;;;;;;;5091568;28;20170;-66
2022/10/30 09:39:48;;;;;;;34.75;19.83;;;;;;;;;;5091369;28;20128;-68
2022/10/30 09:42:14;;;;;;;34.63;20.15;;;;;;;;;;5093612;28;20151;-71
2022/10/30 09:44:40;;;;;;;37.47;19.67;;;;;;;;;;5093903;28;20142;-73
2022/10/30 09:47:25;;;;;;;34.25;18.60;;;;;;;;;;5093650;28;20141;-70
2022/10/30 09:49:51;;;;;;;34.20;18.48;;;;;;;;;;5092987;28;20154;-78
2022/10/30 09:52:29;;;;;;;34.97;19.17;;;;;;;;;;5093270;28;20127;-76
2022/10/30 09:55:04;;;;;;;36.63;18.80;;;;;;;;;;5093553;28;20043;-72
2022/10/30 09:57:34;;;;;;;34.15;18.13;;;;;;;;;;5094273;28;20109;-75
2022/10/30 10:00:00;;;;;;;33.75;17.63;;;;;;;;;;5093103;28;20453;-74
2022/10/30 10:02:39;;;;;;;35.90;18.08;;;;;;;;;;5093241;28;20090;-72
2022/10/30 10:05:11;;;;;;;33.80;18.38;;;;;;;;;;5093035;28;20146;-73
2022/10/30 10:07:39;;;;;;;38.22;17.50;;;;;;;;;;5093191;28;20043;-74
2022/10/30 10:10:38;;;;;;;32.83;17.55;;;;;;;;;;5092448;28;20048;-74
2022/10/30 10:13:04;;;;;;;30.27;17.52;;;;;;;;;;5068969;28;20091;-73
2022/10/30 10:15:39;;;;;;;34.35;17.00;;;;;;;;;;5092368;28;20048;-73
2022/10/30 10:18:11;;;;;;;35.78;18.13;;;;;;;;;;5092236;28;20128;-73
2022/10/30 10:20:40;;;;;;;30.30;17.15;;;;;;;;;;5092580;28;20103;-73
2022/10/30 10:23:32;;;;;;;31.85;17.13;;;;;;;;;;5091651;28;20198;-70
2022/10/30 10:26:00;;;;;;;39.22;17.40;;;;;;;;;;5075392;28;20483;-70
2022/10/30 10:28:40;;;;;;;38.72;17.10;;;;;;;;;;5092829;28;20044;-73
2022/10/30 10:31:06;;;;;;;30.90;17.00;;;;;;;;;;5092237;28;20051;-72
2022/10/30 10:33:38;;;;;;;33.00;16.50;;;;;;;;;;5092193;28;20043;-72
2022/10/30 10:36:16;;;;;;;33.08;16.25;;;;;;;;;;5092487;28;20048;-71
2022/10/30 10:38:48;;;;;;;31.27;14.38;;;;;;;;;;5092210;28;20080;-71
2022/10/30 10:41:18;;;;;;;35.22;15.82;;;;;;;;;;5092782;28;20361;-74
2022/10/30 10:43:46;;;;;;;28.98;15.27;;;;;;;;;;5092869;28;20055;-76
2022/10/30 10:46:31;;;;;;;29.25;14.98;;;;;;;;;;5091371;28;20067;-76
2022/10/30 10:49:12;;;;;;;35.83;14.82;;;;;;;;;;5092905;28;20321;-74
2022/10/30 10:51:40;;;;;;;29.85;13.07;;;;;;;;;;5092247;28;20384;-72
2022/10/30 10:54:25;;;;;;;31.58;13.43;;;;;;;;;;5090882;28;20444;-70
2022/10/30 10:56:51;;;;;;;34.00;13.70;;;;;;;;;;5092021;28;20047;-74
2022/10/30 10:59:17;;;;;;;;;;;;;;;;;;5092698;28;20127;-73
2022/10/30 11:02:09;;;;;;;30.38;13.43;;;;;;;;;;5092844;28;19963;-74
2022/10/30 11:04:43;;;;;;;27.83;12.27;;;;;;;;;;5076298;28;20067;-72
2022/10/30 11:07:23;;;;;;;29.70;13.23;;;;;;;;;;5093012;28;20410;-72
2022/10/30 11:09:51;;;;;;;28.00;13.02;;;;;;;;;;5093209;28;20040;-73
2022/10/30 11:12:20;;;;;;;31.42;12.50;;;;;;;;;;5093184;28;20044;-75
2022/10/30 11:14:46;;;;;;;24.33;12.48;;;;;;;;;;5093764;28;20345;-74
2022/10/30 11:17:14;;;;;;;30.13;12.98;;;;;;;;;;5092432;28;20476;-76
2022/10/30 11:19:40;;;;;;;26.90;13.30;;;;;;;;;;5092858;28;20188;-76
2022/10/30 11:22:19;;;;;;;32.75;13.05;;;;;;;;;;5093903;28;20043;-71
2022/10/30 11:24:45;;;;;;;30.38;13.23;;;;;;;;;;5093071;28;20052;-77
2022/10/30 11:27:24;;;;;;;26.92;11.30;;;;;;;;;;5092138;28;20059;-73
2022/10/30 11:29:56;;;;;;;24.20;11.63;;;;;;;;;;5094524;28;20044;-73
2022/10/30 11:32:25;;;;;;;31.67;12.70;;;;;;;;;;5092978;28;20040;-78
2022/10/30 11:35:03;;;;;;;24.80;11.55;;;;;;;;;;5093547;28;20052;-75
2022/10/30 11:37:30;;;;;;;33.55;11.75;;;;;;;;;;5092069;28;20372;-75
2022/10/30 11:40:11;;;;;;;25.95;10.70;;;;;;;;;;5094244;28;20126;-73
2022/10/30 11:42:46;;;;;;;25.88;11.90;;;;;;;;;;5093262;28;20101;-74
2022/10/30 11:45:18;;;;;;;26.35;11.15;;;;;;;;;;5092726;28;20047;-75
2022/10/30 11:47:44;;;;;;;25.20;12.07;;;;;;;;;;5093109;28;20044;-74
2022/10/30 11:50:19;;;;;;;24.50;11.48;;;;;;;;;;5092447;28;20039;-72
2022/10/30 11:52:46;;;;;;;25.35;12.30;;;;;;;;;;5092793;28;20059;-76
2022/10/30 11:55:15;;;;;;;19.83;10.75;;;;;;;;;;5093104;28;20036;-75
2022/10/30 11:57:42;;;;;;;24.67;12.05;;;;;;;;;;5092259;28;20043;-71
2022/10/30 12:00:19;;;;;;;25.75;11.35;;;;;;;;;;5092990;28;20048;-73
2022/10/30 12:02:46;;;;;;;26.83;10.50;;;;;;;;;;5092591;28;20540;-78
2022/10/30 12:05:31;;;;;;;25.05;11.07;;;;;;;;;;5091961;28;20486;-72
2022/10/30 12:08:05;;;;;;;24.75;10.73;;;;;;;;;;5091608;28;20044;-76
2022/10/30 12:10:32;;;;;;;24.45;10.20;;;;;;;;;;5092284;28;20101;-74
2022/10/30 12:13:03;;;;;;;25.48;11.00;;;;;;;;;;5092209;28;20055;-75
2022/10/30 12:15:31;;;;;;;27.60;10.77;;;;;;;;;;5090053;28;20054;-74
2022/10/30 12:17:59;;;;;;;27.30;10.57;;;;;;;;;;5091496;28;20055;-74
2022/10/30 12:20:25;;;;;;;26.88;10.38;;;;;;;;;;5091662;28;20039;-74
2022/10/30 12:22:52;;;;;;;25.77;10.77;;;;;;;;;;5092069;28;20131;-75
2022/10/30 12:25:18;;;;;;;;;;;;;;;;;;5089605;28;20044;-74
2022/10/30 12:27:44;;;;;;;22.98;9.98;;;;;;;;;;5090864;28;19966;-75
2022/10/30 12:30:16;;;;;;;24.35;10.07;;;;;;;;;;5090500;28;20047;-72
2022/10/30 12:33:11;;;;;;;26.27;10.25;;;;;;;;;;5090256;28;20044;-72
2022/10/30 12:35:37;;;;;;;28.30;10.25;;;;;;;;;;5051704;28;20056;-76
2022/10/30 12:38:05;;;;;;;23.00;9.88;;;;;;;;;;5087615;28;20396;-73
2022/10/30 12:40:36;;;;;;;24.45;10.05;;;;;;;;;;5088488;28;20223;-74
2022/10/30 12:43:12;;;;;;;27.38;10.15;;;;;;;;;;5089024;28;20094;-74
2022/10/30 12:45:42;;;;;;;26.25;10.02;;;;;;;;;;5089271;28;20040;-74
2022/10/30 12:48:26;;;;;;;24.95;9.85;;;;;;;;;;5089129;28;20063;-73
2022/10/30 12:51:11;;;;;;;23.98;9.98;;;;;;;;;;5088892;28;20074;-73
2022/10/30 12:53:40;;;;;;;28.15;9.98;;;;;;;;;;5088849;28;20463;-72
2022/10/30 12:56:09;;;;;;;25.13;10.70;;;;;;;;;;5088597;28;20120;-75
2022/10/30 12:58:53;;;;;;;22.60;9.50;;;;;;;;;;5091304;28;20044;-77
2022/10/30 13:01:25;;;;;;;25.95;10.88;;;;;;;;;;5092614;28;20443;-74
2022/10/30 13:04:16;;;;;;;24.83;9.93;;;;;;;;;;5092599;28;20102;-74
2022/10/30 13:06:56;;;;;;;24.55;9.55;;;;;;;;;;5091768;28;20380;-74
2022/10/30 13:09:26;;;;;;;26.50;10.07;;;;;;;;;;5095799;28;20063;-73
2022/10/30 13:11:55;;;;;;;27.02;10.32;;;;;;;;;;5095258;28;20549;-74
2022/10/30 13:14:27;;;;;;;20.83;10.20;;;;;;;;;;5094932;28;20050;-73
2022/10/30 13:16:53;;;;;;;26.75;10.07;;;;;;;;;;5094625;28;20108;-75
2022/10/30 13:19:19;;;;;;;25.00;10.30;;;;;;;;;;5094497;28;20499;-73
2022/10/30 13:22:01;;;;;;;28.60;11.07;;;;;;;;;;5094021;28;20043;-74
2022/10/30 13:24:27;;;;;;;23.00;10.18;;;;;;;;;;5092862;28;20481;-72
2022/10/30 13:26:53;;;;;;;28.27;10.27;;;;;;;;;;5094660;28;20044;-74
2022/10/30 13:29:29;;;;;;;25.23;9.50;;;;;;;;;;5094635;28;20093;-73
2022/10/30 13:32:14;;;;;;;22.37;9.40;;;;;;;;;;5094528;28;20131;-75
2022/10/30 13:34:42;;;;;;;23.98;9.63;;;;;;;;;;5094165;28;20051;-73
2022/10/30 13:37:23;;;;;;;25.85;10.38;;;;;;;;;;5093698;28;20464;-73
2022/10/30 13:39:55;;;;;;;21.75;10.00;;;;;;;;;;5094608;28;20101;-74
2022/10/30 13:42:26;;;;;;;27.23;11.50;;;;;;;;;;5094164;28;20062;-73
2022/10/30 13:44:59;;;;;;;26.42;9.88;;;;;;;;;;5094818;28;20127;-73
2022/10/30 13:47:43;;;;;;;27.67;9.45;;;;;;;;;;5094459;28;20119;-74
2022/10/30 13:50:30;;;;;;;25.92;10.32;;;;;;;;;;5095003;28;20105;-73
2022/10/30 13:52:58;;;;;;;22.03;10.10;;;;;;;;;;5073695;28;20346;-71
2022/10/30 13:55:28;;;;;;;23.45;10.32;;;;;;;;;;5094003;28;20058;-71
2022/10/30 13:58:08;;;;;;;29.45;10.63;;;;;;;;;;5094921;28;20055;-71
2022/10/30 14:00:46;;;;;;;22.58;10.95;;;;;;;;;;5094129;28;20151;-71
2022/10/30 14:03:16;;;;;;;25.50;10.13;;;;;;;;;;5093300;28;20047;-72
2022/10/30 14:05:42;;;;;;;25.45;10.85;;;;;;;;;;5093282;28;20048;-72
2022/10/30 14:08:26;;;;;;;25.38;10.27;;;;;;;;;;5093636;28;20089;-73
2022/10/30 14:10:54;;;;;;;24.08;9.85;;;;;;;;;;5093824;28;20430;-75
2022/10/30 14:13:27;;;;;;;23.40;10.77;;;;;;;;;;5094305;28;20486;-80
2022/10/30 14:15:59;;;;;;;26.02;10.77;;;;;;;;;;5092998;28;20039;-77
2022/10/30 14:18:27;;;;;;;24.75;10.20;;;;;;;;;;5092946;28;20043;-73
2022/10/30 14:20:54;;;;;;;23.60;10.30;;;;;;;;;;5093732;28;20040;-75
2022/10/30 14:23:23;;;;;;;25.98;11.65;;;;;;;;;;5093605;28;20083;-75
2022/10/30 14:26:04;;;;;;;25.45;11.30;;;;;;;;;;5093806;28;20044;-74
2022/10/30 14:28:31;;;;;;;24.35;10.15;;;;;;;;;;5093674;28;20080;-74
2022/10/30 14:31:16;;;;;;;29.08;10.80;;;;;;;;;;5093920;28;20436;-75
2022/10/30 14:33:45;;;;;;;23.08;10.63;;;;;;;;;;5094110;28;20048;-73